X  CloseMetar Aviation Weather Data     ENZV Stavanger , Sola

Temperature

0°C Temperature

-1°C Dewpoint

93% Humidity



Wind

 5 KM/H

 3 MPH

 1 M/S

 3 KTS



Calm
Due North
Current Conditions

Clear Clear
Pressure 1014.92 (hPa) - 29.97 (in)
Visibility 6.2 (mi) - 10 (km)
Airport
Airport-code ENZV

Location Stavanger , Sola 100 (km)

Metar:
ENZV 192250Z VRB03KT CAVOK 00/M01 Q1015

Time: 19-11-2019 23:50